sensor_id;sensor_type;location;lat;lon;timestamp;P1;durP1;ratioP1;P2;durP2;ratioP2
47784;SDS011;35233;55.686;37.848;2024-02-26T00:01:31;3.22;;;2.63;;
47784;SDS011;35233;55.686;37.848;2024-02-26T00:04:01;4.20;;;2.90;;
47784;SDS011;35233;55.686;37.848;2024-02-26T00:06:28;4.10;;;2.90;;
47784;SDS011;35233;55.686;37.848;2024-02-26T00:08:56;3.85;;;2.63;;
47784;SDS011;35233;55.686;37.848;2024-02-26T00:11:22;3.80;;;2.53;;
47784;SDS011;35233;55.686;37.848;2024-02-26T00:13:48;5.05;;;2.80;;
47784;SDS011;35233;55.686;37.848;2024-02-26T00:16:13;5.15;;;2.80;;
47784;SDS011;35233;55.686;37.848;2024-02-26T00:18:39;6.13;;;3.15;;
47784;SDS011;35233;55.686;37.848;2024-02-26T00:21:04;4.55;;;2.63;;
47784;SDS011;35233;55.686;37.848;2024-02-26T00:23:30;3.95;;;2.60;;
47784;SDS011;35233;55.686;37.848;2024-02-26T00:25:56;3.53;;;2.70;;
47784;SDS011;35233;55.686;37.848;2024-02-26T00:28:21;3.60;;;2.63;;
47784;SDS011;35233;55.686;37.848;2024-02-26T00:30:47;4.22;;;2.97;;
47784;SDS011;35233;55.686;37.848;2024-02-26T00:33:16;3.92;;;2.80;;
47784;SDS011;35233;55.686;37.848;2024-02-26T00:35:42;4.60;;;2.85;;
47784;SDS011;35233;55.686;37.848;2024-02-26T00:38:08;4.18;;;2.72;;
47784;SDS011;35233;55.686;37.848;2024-02-26T00:40:33;5.35;;;2.80;;
47784;SDS011;35233;55.686;37.848;2024-02-26T00:42:59;3.50;;;2.45;;
47784;SDS011;35233;55.686;37.848;2024-02-26T00:45:25;4.15;;;2.75;;
47784;SDS011;35233;55.686;37.848;2024-02-26T00:47:50;4.20;;;2.80;;
47784;SDS011;35233;55.686;37.848;2024-02-26T00:50:16;3.97;;;2.80;;
47784;SDS011;35233;55.686;37.848;2024-02-26T00:52:42;4.47;;;2.78;;
47784;SDS011;35233;55.686;37.848;2024-02-26T00:55:08;4.63;;;2.67;;
47784;SDS011;35233;55.686;37.848;2024-02-26T00:57:34;4.15;;;2.80;;
47784;SDS011;35233;55.686;37.848;2024-02-26T00:59:59;3.83;;;2.33;;
47784;SDS011;35233;55.686;37.848;2024-02-26T01:02:25;4.90;;;3.08;;
47784;SDS011;35233;55.686;37.848;2024-02-26T01:04:51;4.78;;;3.33;;
47784;SDS011;35233;55.686;37.848;2024-02-26T01:07:19;5.75;;;2.88;;
47784;SDS011;35233;55.686;37.848;2024-02-26T01:12:23;5.75;;;2.80;;
47784;SDS011;35233;55.686;37.848;2024-02-26T01:14:48;4.22;;;2.80;;
47784;SDS011;35233;55.686;37.848;2024-02-26T01:17:14;4.57;;;2.35;;
47784;SDS011;35233;55.686;37.848;2024-02-26T01:19:39;3.78;;;2.67;;
47784;SDS011;35233;55.686;37.848;2024-02-26T01:22:06;4.22;;;2.70;;
47784;SDS011;35233;55.686;37.848;2024-02-26T01:24:31;5.70;;;2.60;;
47784;SDS011;35233;55.686;37.848;2024-02-26T01:26:57;6.10;;;2.63;;
47784;SDS011;35233;55.686;37.848;2024-02-26T01:29:25;3.92;;;2.65;;
47784;SDS011;35233;55.686;37.848;2024-02-26T01:31:50;5.65;;;2.70;;
47784;SDS011;35233;55.686;37.848;2024-02-26T01:34:16;3.92;;;2.80;;
47784;SDS011;35233;55.686;37.848;2024-02-26T01:36:43;4.13;;;2.70;;
47784;SDS011;35233;55.686;37.848;2024-02-26T01:39:09;4.25;;;2.83;;
47784;SDS011;35233;55.686;37.848;2024-02-26T01:41:40;4.80;;;2.58;;
47784;SDS011;35233;55.686;37.848;2024-02-26T01:44:06;4.35;;;2.80;;
47784;SDS011;35233;55.686;37.848;2024-02-26T01:46:35;4.07;;;2.80;;
47784;SDS011;35233;55.686;37.848;2024-02-26T01:49:01;3.25;;;2.25;;
47784;SDS011;35233;55.686;37.848;2024-02-26T01:51:28;4.20;;;2.50;;
47784;SDS011;35233;55.686;37.848;2024-02-26T01:53:55;4.45;;;2.90;;
47784;SDS011;35233;55.686;37.848;2024-02-26T01:56:23;4.00;;;2.85;;
47784;SDS011;35233;55.686;37.848;2024-02-26T01:58:55;3.80;;;2.60;;
47784;SDS011;35233;55.686;37.848;2024-02-26T02:01:29;3.63;;;2.42;;
47784;SDS011;35233;55.686;37.848;2024-02-26T02:03:57;4.70;;;2.75;;
47784;SDS011;35233;55.686;37.848;2024-02-26T02:06:24;3.83;;;2.65;;
47784;SDS011;35233;55.686;37.848;2024-02-26T02:08:52;4.35;;;2.88;;
47784;SDS011;35233;55.686;37.848;2024-02-26T02:11:17;3.70;;;2.78;;
47784;SDS011;35233;55.686;37.848;2024-02-26T02:13:56;4.07;;;2.70;;
47784;SDS011;35233;55.686;37.848;2024-02-26T02:16:24;4.40;;;2.60;;
47784;SDS011;35233;55.686;37.848;2024-02-26T02:18:50;4.57;;;2.63;;
47784;SDS011;35233;55.686;37.848;2024-02-26T02:21:16;4.22;;;2.80;;
47784;SDS011;35233;55.686;37.848;2024-02-26T02:23:41;5.00;;;3.17;;
47784;SDS011;35233;55.686;37.848;2024-02-26T02:26:12;4.13;;;3.00;;
47784;SDS011;35233;55.686;37.848;2024-02-26T02:28:39;5.90;;;3.38;;
47784;SDS011;35233;55.686;37.848;2024-02-26T02:31:05;5.43;;;3.35;;
47784;SDS011;35233;55.686;37.848;2024-02-26T02:33:31;4.90;;;3.50;;
47784;SDS011;35233;55.686;37.848;2024-02-26T02:35:58;6.88;;;3.70;;
47784;SDS011;35233;55.686;37.848;2024-02-26T02:38:24;5.72;;;3.60;;
47784;SDS011;35233;55.686;37.848;2024-02-26T02:40:51;5.10;;;3.88;;
47784;SDS011;35233;55.686;37.848;2024-02-26T02:43:17;7.25;;;4.00;;
47784;SDS011;35233;55.686;37.848;2024-02-26T02:45:43;5.75;;;4.00;;
47784;SDS011;35233;55.686;37.848;2024-02-26T02:48:09;5.50;;;4.30;;
47784;SDS011;35233;55.686;37.848;2024-02-26T02:50:35;5.97;;;3.92;;
47784;SDS011;35233;55.686;37.848;2024-02-26T02:53:01;5.25;;;3.90;;
47784;SDS011;35233;55.686;37.848;2024-02-26T02:55:27;6.07;;;4.10;;
47784;SDS011;35233;55.686;37.848;2024-02-26T02:57:53;5.22;;;3.97;;
47784;SDS011;35233;55.686;37.848;2024-02-26T03:00:19;4.65;;;3.80;;
47784;SDS011;35233;55.686;37.848;2024-02-26T03:02:45;5.53;;;3.60;;
47784;SDS011;35233;55.686;37.848;2024-02-26T03:05:11;6.18;;;4.00;;
47784;SDS011;35233;55.686;37.848;2024-02-26T03:07:37;6.82;;;3.95;;
47784;SDS011;35233;55.686;37.848;2024-02-26T03:10:03;6.05;;;3.55;;
47784;SDS011;35233;55.686;37.848;2024-02-26T03:12:29;5.65;;;3.72;;
47784;SDS011;35233;55.686;37.848;2024-02-26T03:14:57;6.05;;;3.95;;
47784;SDS011;35233;55.686;37.848;2024-02-26T03:17:23;5.45;;;3.58;;
47784;SDS011;35233;55.686;37.848;2024-02-26T03:19:52;5.88;;;4.10;;
47784;SDS011;35233;55.686;37.848;2024-02-26T03:22:19;5.35;;;4.00;;
47784;SDS011;35233;55.686;37.848;2024-02-26T03:24:45;5.60;;;3.90;;
47784;SDS011;35233;55.686;37.848;2024-02-26T03:27:11;5.90;;;3.58;;
47784;SDS011;35233;55.686;37.848;2024-02-26T03:29:49;5.80;;;3.80;;
47784;SDS011;35233;55.686;37.848;2024-02-26T03:32:26;5.85;;;3.70;;
47784;SDS011;35233;55.686;37.848;2024-02-26T03:34:52;6.18;;;3.78;;
47784;SDS011;35233;55.686;37.848;2024-02-26T03:37:21;5.63;;;4.03;;
47784;SDS011;35233;55.686;37.848;2024-02-26T03:39:46;5.68;;;3.67;;
47784;SDS011;35233;55.686;37.848;2024-02-26T03:42:12;6.28;;;3.50;;
47784;SDS011;35233;55.686;37.848;2024-02-26T03:44:38;6.15;;;3.55;;
47784;SDS011;35233;55.686;37.848;2024-02-26T03:47:03;5.40;;;3.90;;
47784;SDS011;35233;55.686;37.848;2024-02-26T03:49:29;6.80;;;3.97;;
47784;SDS011;35233;55.686;37.848;2024-02-26T03:51:54;5.18;;;3.78;;
47784;SDS011;35233;55.686;37.848;2024-02-26T03:54:23;6.07;;;4.30;;
47784;SDS011;35233;55.686;37.848;2024-02-26T03:56:49;5.95;;;3.80;;
47784;SDS011;35233;55.686;37.848;2024-02-26T03:59:14;5.60;;;3.90;;
47784;SDS011;35233;55.686;37.848;2024-02-26T04:01:44;7.00;;;4.28;;
47784;SDS011;35233;55.686;37.848;2024-02-26T04:04:12;6.18;;;3.60;;
47784;SDS011;35233;55.686;37.848;2024-02-26T04:06:38;5.78;;;4.15;;
47784;SDS011;35233;55.686;37.848;2024-02-26T04:09:03;5.32;;;3.80;;
47784;SDS011;35233;55.686;37.848;2024-02-26T04:11:29;5.80;;;4.07;;
47784;SDS011;35233;55.686;37.848;2024-02-26T04:13:55;6.38;;;4.30;;
47784;SDS011;35233;55.686;37.848;2024-02-26T04:16:20;5.65;;;4.13;;
47784;SDS011;35233;55.686;37.848;2024-02-26T04:18:46;6.65;;;4.25;;
47784;SDS011;35233;55.686;37.848;2024-02-26T04:21:12;5.45;;;4.03;;
47784;SDS011;35233;55.686;37.848;2024-02-26T04:23:38;5.88;;;3.95;;
47784;SDS011;35233;55.686;37.848;2024-02-26T04:26:04;6.60;;;4.20;;
47784;SDS011;35233;55.686;37.848;2024-02-26T04:28:30;6.18;;;4.25;;
47784;SDS011;35233;55.686;37.848;2024-02-26T04:30:55;6.18;;;4.10;;
47784;SDS011;35233;55.686;37.848;2024-02-26T04:33:21;8.07;;;4.30;;
47784;SDS011;35233;55.686;37.848;2024-02-26T04:35:49;6.93;;;4.25;;
47784;SDS011;35233;55.686;37.848;2024-02-26T04:38:17;6.75;;;4.38;;
47784;SDS011;35233;55.686;37.848;2024-02-26T04:40:43;7.45;;;4.13;;
47784;SDS011;35233;55.686;37.848;2024-02-26T04:43:08;5.55;;;3.97;;
47784;SDS011;35233;55.686;37.848;2024-02-26T04:45:34;12.52;;;4.60;;
47784;SDS011;35233;55.686;37.848;2024-02-26T04:47:59;6.82;;;4.50;;
47784;SDS011;35233;55.686;37.848;2024-02-26T04:50:25;6.18;;;4.07;;
47784;SDS011;35233;55.686;37.848;2024-02-26T04:52:51;6.97;;;4.45;;
47784;SDS011;35233;55.686;37.848;2024-02-26T04:55:16;7.20;;;4.75;;
47784;SDS011;35233;55.686;37.848;2024-02-26T04:57:42;9.00;;;5.15;;
47784;SDS011;35233;55.686;37.848;2024-02-26T05:00:08;7.25;;;4.80;;
47784;SDS011;35233;55.686;37.848;2024-02-26T05:02:34;7.32;;;4.57;;
47784;SDS011;35233;55.686;37.848;2024-02-26T05:05:04;10.20;;;5.13;;
47784;SDS011;35233;55.686;37.848;2024-02-26T05:07:30;8.88;;;5.30;;
47784;SDS011;35233;55.686;37.848;2024-02-26T05:09:56;7.13;;;4.22;;
47784;SDS011;35233;55.686;37.848;2024-02-26T05:12:22;8.90;;;4.85;;
47784;SDS011;35233;55.686;37.848;2024-02-26T05:14:47;6.88;;;4.38;;
47784;SDS011;35233;55.686;37.848;2024-02-26T05:17:13;6.75;;;4.80;;
47784;SDS011;35233;55.686;37.848;2024-02-26T05:19:38;8.30;;;4.82;;
47784;SDS011;35233;55.686;37.848;2024-02-26T05:22:04;6.40;;;4.30;;
47784;SDS011;35233;55.686;37.848;2024-02-26T05:24:30;6.25;;;4.32;;
47784;SDS011;35233;55.686;37.848;2024-02-26T05:26:55;6.47;;;4.35;;
47784;SDS011;35233;55.686;37.848;2024-02-26T05:29:21;7.20;;;4.93;;
47784;SDS011;35233;55.686;37.848;2024-02-26T05:31:46;7.28;;;4.53;;
47784;SDS011;35233;55.686;37.848;2024-02-26T05:34:12;7.97;;;5.03;;
47784;SDS011;35233;55.686;37.848;2024-02-26T05:36:38;7.22;;;4.25;;
47784;SDS011;35233;55.686;37.848;2024-02-26T05:39:04;8.48;;;4.97;;
47784;SDS011;35233;55.686;37.848;2024-02-26T05:41:30;5.88;;;4.22;;
47784;SDS011;35233;55.686;37.848;2024-02-26T05:43:55;9.02;;;4.88;;
47784;SDS011;35233;55.686;37.848;2024-02-26T05:46:21;7.07;;;4.40;;
47784;SDS011;35233;55.686;37.848;2024-02-26T05:48:48;7.78;;;4.60;;
47784;SDS011;35233;55.686;37.848;2024-02-26T05:51:16;7.53;;;4.40;;
47784;SDS011;35233;55.686;37.848;2024-02-26T05:53:41;7.85;;;5.35;;
47784;SDS011;35233;55.686;37.848;2024-02-26T05:56:07;6.60;;;4.32;;
47784;SDS011;35233;55.686;37.848;2024-02-26T05:58:33;7.53;;;4.30;;
47784;SDS011;35233;55.686;37.848;2024-02-26T06:00:59;7.32;;;4.40;;
47784;SDS011;35233;55.686;37.848;2024-02-26T06:03:27;7.13;;;4.03;;
47784;SDS011;35233;55.686;37.848;2024-02-26T06:05:53;6.03;;;4.28;;
47784;SDS011;35233;55.686;37.848;2024-02-26T06:08:19;8.07;;;4.57;;
47784;SDS011;35233;55.686;37.848;2024-02-26T06:10:44;6.00;;;3.83;;
47784;SDS011;35233;55.686;37.848;2024-02-26T06:13:10;6.05;;;4.63;;
47784;SDS011;35233;55.686;37.848;2024-02-26T06:15:38;6.85;;;4.18;;
47784;SDS011;35233;55.686;37.848;2024-02-26T06:18:09;7.32;;;4.35;;
47784;SDS011;35233;55.686;37.848;2024-02-26T06:20:35;5.50;;;4.00;;
47784;SDS011;35233;55.686;37.848;2024-02-26T06:23:03;7.18;;;4.40;;
47784;SDS011;35233;55.686;37.848;2024-02-26T06:25:32;7.97;;;4.70;;
47784;SDS011;35233;55.686;37.848;2024-02-26T06:27:57;6.88;;;4.35;;
47784;SDS011;35233;55.686;37.848;2024-02-26T06:30:23;5.82;;;4.00;;
47784;SDS011;35233;55.686;37.848;2024-02-26T06:32:49;7.60;;;4.82;;
47784;SDS011;35233;55.686;37.848;2024-02-26T06:35:17;7.82;;;4.72;;
47784;SDS011;35233;55.686;37.848;2024-02-26T06:37:43;6.10;;;4.00;;
47784;SDS011;35233;55.686;37.848;2024-02-26T06:40:09;5.47;;;3.95;;
47784;SDS011;35233;55.686;37.848;2024-02-26T06:42:38;5.78;;;4.28;;
47784;SDS011;35233;55.686;37.848;2024-02-26T06:45:04;6.72;;;4.57;;
47784;SDS011;35233;55.686;37.848;2024-02-26T06:47:30;6.18;;;4.13;;
47784;SDS011;35233;55.686;37.848;2024-02-26T06:49:56;5.28;;;3.75;;
47784;SDS011;35233;55.686;37.848;2024-02-26T06:52:24;5.03;;;3.83;;
47784;SDS011;35233;55.686;37.848;2024-02-26T06:54:50;5.97;;;3.83;;
47784;SDS011;35233;55.686;37.848;2024-02-26T06:57:20;4.82;;;3.58;;
47784;SDS011;35233;55.686;37.848;2024-02-26T06:59:46;5.20;;;3.95;;
47784;SDS011;35233;55.686;37.848;2024-02-26T07:02:12;5.82;;;3.72;;
47784;SDS011;35233;55.686;37.848;2024-02-26T07:04:39;6.25;;;3.83;;
47784;SDS011;35233;55.686;37.848;2024-02-26T07:07:05;5.15;;;3.80;;
47784;SDS011;35233;55.686;37.848;2024-02-26T07:09:32;5.57;;;3.60;;
47784;SDS011;35233;55.686;37.848;2024-02-26T07:11:58;5.40;;;3.72;;
47784;SDS011;35233;55.686;37.848;2024-02-26T07:14:23;5.97;;;3.30;;
47784;SDS011;35233;55.686;37.848;2024-02-26T07:16:50;5.97;;;3.83;;
47784;SDS011;35233;55.686;37.848;2024-02-26T07:19:16;6.30;;;4.20;;
47784;SDS011;35233;55.686;37.848;2024-02-26T07:21:42;6.88;;;4.35;;
47784;SDS011;35233;55.686;37.848;2024-02-26T07:24:08;9.23;;;4.20;;
47784;SDS011;35233;55.686;37.848;2024-02-26T07:26:34;5.03;;;3.50;;
47784;SDS011;35233;55.686;37.848;2024-02-26T07:28:59;6.95;;;4.57;;
47784;SDS011;35233;55.686;37.848;2024-02-26T07:31:26;8.20;;;4.00;;
47784;SDS011;35233;55.686;37.848;2024-02-26T07:33:52;6.72;;;4.30;;
47784;SDS011;35233;55.686;37.848;2024-02-26T07:36:27;5.93;;;3.70;;
47784;SDS011;35233;55.686;37.848;2024-02-26T07:39:01;6.80;;;3.75;;
47784;SDS011;35233;55.686;37.848;2024-02-26T07:41:27;8.95;;;3.75;;
47784;SDS011;35233;55.686;37.848;2024-02-26T07:43:53;7.15;;;4.10;;
47784;SDS011;35233;55.686;37.848;2024-02-26T07:46:25;6.45;;;4.18;;
47784;SDS011;35233;55.686;37.848;2024-02-26T07:48:51;5.18;;;3.80;;
47784;SDS011;35233;55.686;37.848;2024-02-26T07:51:26;6.30;;;4.32;;
47784;SDS011;35233;55.686;37.848;2024-02-26T07:53:51;5.65;;;4.07;;
47784;SDS011;35233;55.686;37.848;2024-02-26T07:56:25;7.53;;;4.25;;
47784;SDS011;35233;55.686;37.848;2024-02-26T07:58:51;7.65;;;4.03;;
47784;SDS011;35233;55.686;37.848;2024-02-26T08:01:25;7.50;;;3.97;;
47784;SDS011;35233;55.686;37.848;2024-02-26T08:03:56;5.85;;;3.75;;
47784;SDS011;35233;55.686;37.848;2024-02-26T08:08:55;5.78;;;3.72;;
47784;SDS011;35233;55.686;37.848;2024-02-26T08:11:21;6.38;;;4.25;;
47784;SDS011;35233;55.686;37.848;2024-02-26T08:13:46;7.72;;;4.38;;
47784;SDS011;35233;55.686;37.848;2024-02-26T08:16:18;6.43;;;4.30;;
47784;SDS011;35233;55.686;37.848;2024-02-26T08:18:44;6.05;;;3.70;;
47784;SDS011;35233;55.686;37.848;2024-02-26T08:21:15;4.75;;;3.50;;
47784;SDS011;35233;55.686;37.848;2024-02-26T08:23:42;7.18;;;4.20;;
47784;SDS011;35233;55.686;37.848;2024-02-26T08:26:11;7.25;;;4.10;;
47784;SDS011;35233;55.686;37.848;2024-02-26T08:28:37;6.10;;;3.60;;
47784;SDS011;35233;55.686;37.848;2024-02-26T08:31:03;4.65;;;3.30;;
47784;SDS011;35233;55.686;37.848;2024-02-26T08:33:30;6.15;;;3.60;;
47784;SDS011;35233;55.686;37.848;2024-02-26T08:35:56;6.85;;;3.97;;
47784;SDS011;35233;55.686;37.848;2024-02-26T08:38:22;5.28;;;3.67;;
47784;SDS011;35233;55.686;37.848;2024-02-26T08:40:48;5.20;;;3.65;;
47784;SDS011;35233;55.686;37.848;2024-02-26T08:43:14;4.43;;;3.28;;
47784;SDS011;35233;55.686;37.848;2024-02-26T08:45:40;7.22;;;4.25;;
47784;SDS011;35233;55.686;37.848;2024-02-26T08:48:06;6.53;;;4.13;;
47784;SDS011;35233;55.686;37.848;2024-02-26T08:50:32;5.53;;;3.53;;
47784;SDS011;35233;55.686;37.848;2024-02-26T08:52:58;4.82;;;3.70;;
47784;SDS011;35233;55.686;37.848;2024-02-26T08:55:26;4.57;;;3.85;;
47784;SDS011;35233;55.686;37.848;2024-02-26T08:57:51;6.65;;;3.90;;
47784;SDS011;35233;55.686;37.848;2024-02-26T09:00:20;5.72;;;3.58;;
47784;SDS011;35233;55.686;37.848;2024-02-26T09:02:49;5.30;;;3.55;;
47784;SDS011;35233;55.686;37.848;2024-02-26T09:05:14;5.32;;;3.53;;
47784;SDS011;35233;55.686;37.848;2024-02-26T09:07:43;5.78;;;3.42;;
47784;SDS011;35233;55.686;37.848;2024-02-26T09:10:09;4.72;;;3.30;;
47784;SDS011;35233;55.686;37.848;2024-02-26T09:12:36;5.95;;;3.47;;
47784;SDS011;35233;55.686;37.848;2024-02-26T09:15:03;5.57;;;3.20;;
47784;SDS011;35233;55.686;37.848;2024-02-26T09:17:29;5.57;;;3.47;;
47784;SDS011;35233;55.686;37.848;2024-02-26T09:19:55;4.72;;;3.30;;
47784;SDS011;35233;55.686;37.848;2024-02-26T09:22:21;5.50;;;3.08;;
47784;SDS011;35233;55.686;37.848;2024-02-26T09:24:50;4.53;;;3.33;;
47784;SDS011;35233;55.686;37.848;2024-02-26T09:27:17;5.55;;;3.38;;
47784;SDS011;35233;55.686;37.848;2024-02-26T09:29:43;5.43;;;3.20;;
47784;SDS011;35233;55.686;37.848;2024-02-26T09:32:14;8.57;;;3.88;;
47784;SDS011;35233;55.686;37.848;2024-02-26T09:34:58;5.60;;;3.72;;
47784;SDS011;35233;55.686;37.848;2024-02-26T09:37:23;6.55;;;3.70;;
47784;SDS011;35233;55.686;37.848;2024-02-26T09:39:49;6.55;;;3.85;;
47784;SDS011;35233;55.686;37.848;2024-02-26T09:42:15;7.32;;;4.05;;
47784;SDS011;35233;55.686;37.848;2024-02-26T09:44:44;5.72;;;3.80;;
47784;SDS011;35233;55.686;37.848;2024-02-26T09:47:13;8.43;;;3.80;;
47784;SDS011;35233;55.686;37.848;2024-02-26T09:49:42;6.03;;;3.63;;
47784;SDS011;35233;55.686;37.848;2024-02-26T09:52:09;7.82;;;4.15;;
47784;SDS011;35233;55.686;37.848;2024-02-26T09:54:35;6.88;;;3.85;;
47784;SDS011;35233;55.686;37.848;2024-02-26T09:57:02;6.57;;;4.35;;
47784;SDS011;35233;55.686;37.848;2024-02-26T09:59:35;8.57;;;4.60;;
47784;SDS011;35233;55.686;37.848;2024-02-26T10:02:07;6.90;;;4.20;;
47784;SDS011;35233;55.686;37.848;2024-02-26T10:04:38;5.68;;;4.22;;
47784;SDS011;35233;55.686;37.848;2024-02-26T10:07:12;7.80;;;4.50;;
47784;SDS011;35233;55.686;37.848;2024-02-26T10:09:39;6.45;;;4.63;;
47784;SDS011;35233;55.686;37.848;2024-02-26T10:12:07;5.95;;;4.22;;
47784;SDS011;35233;55.686;37.848;2024-02-26T10:14:43;5.70;;;4.32;;
47784;SDS011;35233;55.686;37.848;2024-02-26T10:17:16;6.38;;;4.20;;
47784;SDS011;35233;55.686;37.848;2024-02-26T10:19:48;5.93;;;4.38;;
47784;SDS011;35233;55.686;37.848;2024-02-26T10:22:17;6.35;;;4.43;;
47784;SDS011;35233;55.686;37.848;2024-02-26T10:24:42;9.50;;;4.55;;
47784;SDS011;35233;55.686;37.848;2024-02-26T10:27:08;7.45;;;4.60;;
47784;SDS011;35233;55.686;37.848;2024-02-26T10:29:34;6.18;;;4.50;;
47784;SDS011;35233;55.686;37.848;2024-02-26T10:32:00;7.25;;;4.72;;
47784;SDS011;35233;55.686;37.848;2024-02-26T10:34:26;8.05;;;4.55;;
47784;SDS011;35233;55.686;37.848;2024-02-26T10:36:56;7.18;;;4.28;;
47784;SDS011;35233;55.686;37.848;2024-02-26T10:39:21;7.75;;;4.65;;
47784;SDS011;35233;55.686;37.848;2024-02-26T10:41:47;6.68;;;4.72;;
47784;SDS011;35233;55.686;37.848;2024-02-26T10:44:13;7.13;;;5.05;;
47784;SDS011;35233;55.686;37.848;2024-02-26T10:46:42;6.78;;;4.47;;
47784;SDS011;35233;55.686;37.848;2024-02-26T10:49:14;7.93;;;4.63;;
47784;SDS011;35233;55.686;37.848;2024-02-26T10:51:45;7.18;;;4.40;;
47784;SDS011;35233;55.686;37.848;2024-02-26T10:54:16;7.15;;;4.40;;
47784;SDS011;35233;55.686;37.848;2024-02-26T10:56:48;7.97;;;4.88;;
47784;SDS011;35233;55.686;37.848;2024-02-26T10:59:18;6.60;;;4.68;;
47784;SDS011;35233;55.686;37.848;2024-02-26T11:01:52;7.13;;;4.35;;
47784;SDS011;35233;55.686;37.848;2024-02-26T11:04:22;6.28;;;4.07;;
47784;SDS011;35233;55.686;37.848;2024-02-26T11:06:50;7.32;;;4.32;;
47784;SDS011;35233;55.686;37.848;2024-02-26T11:09:21;6.47;;;4.35;;
47784;SDS011;35233;55.686;37.848;2024-02-26T11:11:50;6.78;;;4.25;;
47784;SDS011;35233;55.686;37.848;2024-02-26T11:14:20;7.47;;;4.35;;
47784;SDS011;35233;55.686;37.848;2024-02-26T11:16:47;6.57;;;4.15;;
47784;SDS011;35233;55.686;37.848;2024-02-26T11:19:18;6.03;;;4.07;;
47784;SDS011;35233;55.686;37.848;2024-02-26T11:21:46;6.45;;;3.90;;
47784;SDS011;35233;55.686;37.848;2024-02-26T11:24:13;7.32;;;4.28;;
47784;SDS011;35233;55.686;37.848;2024-02-26T11:26:49;6.57;;;4.20;;
47784;SDS011;35233;55.686;37.848;2024-02-26T11:29:24;5.82;;;3.83;;
47784;SDS011;35233;55.686;37.848;2024-02-26T11:31:52;5.95;;;3.92;;
47784;SDS011;35233;55.686;37.848;2024-02-26T11:34:18;6.28;;;3.97;;
47784;SDS011;35233;55.686;37.848;2024-02-26T11:36:44;7.35;;;4.30;;
47784;SDS011;35233;55.686;37.848;2024-02-26T11:39:11;7.93;;;4.53;;
47784;SDS011;35233;55.686;37.848;2024-02-26T11:41:42;6.38;;;3.85;;
47784;SDS011;35233;55.686;37.848;2024-02-26T11:44:10;8.15;;;4.22;;
47784;SDS011;35233;55.686;37.848;2024-02-26T11:46:39;7.35;;;4.47;;
47784;SDS011;35233;55.686;37.848;2024-02-26T11:51:51;6.18;;;4.40;;
47784;SDS011;35233;55.686;37.848;2024-02-26T12:02:44;6.80;;;4.22;;
47784;SDS011;35233;55.686;37.848;2024-02-26T12:05:17;6.63;;;4.10;;
47784;SDS011;35233;55.686;37.848;2024-02-26T12:07:47;7.32;;;4.25;;
47784;SDS011;35233;55.686;37.848;2024-02-26T12:10:36;6.80;;;4.35;;
47784;SDS011;35233;55.686;37.848;2024-02-26T12:13:10;5.38;;;3.60;;
47784;SDS011;35233;55.686;37.848;2024-02-26T12:15:40;5.93;;;4.00;;
47784;SDS011;35233;55.686;37.848;2024-02-26T12:18:17;7.28;;;4.03;;
47784;SDS011;35233;55.686;37.848;2024-02-26T12:20:43;6.38;;;4.20;;
47784;SDS011;35233;55.686;37.848;2024-02-26T12:23:09;6.40;;;4.43;;
47784;SDS011;35233;55.686;37.848;2024-02-26T12:25:40;7.35;;;4.07;;
47784;SDS011;35233;55.686;37.848;2024-02-26T12:28:16;5.60;;;3.65;;
47784;SDS011;35233;55.686;37.848;2024-02-26T12:30:42;7.03;;;4.07;;
47784;SDS011;35233;55.686;37.848;2024-02-26T12:33:07;5.57;;;3.83;;
47784;SDS011;35233;55.686;37.848;2024-02-26T12:35:33;5.78;;;4.00;;
47784;SDS011;35233;55.686;37.848;2024-02-26T12:38:00;5.82;;;3.75;;
47784;SDS011;35233;55.686;37.848;2024-02-26T12:40:26;6.07;;;4.05;;
47784;SDS011;35233;55.686;37.848;2024-02-26T12:42:53;5.32;;;3.85;;
47784;SDS011;35233;55.686;37.848;2024-02-26T12:45:20;6.15;;;4.20;;
47784;SDS011;35233;55.686;37.848;2024-02-26T12:47:46;6.20;;;4.07;;
47784;SDS011;35233;55.686;37.848;2024-02-26T12:50:13;7.15;;;4.18;;
47784;SDS011;35233;55.686;37.848;2024-02-26T12:52:39;5.60;;;3.83;;
47784;SDS011;35233;55.686;37.848;2024-02-26T12:55:06;5.90;;;4.05;;
47784;SDS011;35233;55.686;37.848;2024-02-26T12:57:35;7.03;;;4.43;;
47784;SDS011;35233;55.686;37.848;2024-02-26T13:00:15;5.97;;;3.97;;
47784;SDS011;35233;55.686;37.848;2024-02-26T13:05:35;7.93;;;4.55;;
47784;SDS011;35233;55.686;37.848;2024-02-26T13:08:01;5.38;;;4.07;;
47784;SDS011;35233;55.686;37.848;2024-02-26T13:10:27;5.93;;;4.13;;
47784;SDS011;35233;55.686;37.848;2024-02-26T13:12:52;5.15;;;3.72;;
47784;SDS011;35233;55.686;37.848;2024-02-26T13:15:19;5.22;;;3.90;;
47784;SDS011;35233;55.686;37.848;2024-02-26T13:17:47;5.78;;;3.90;;
47784;SDS011;35233;55.686;37.848;2024-02-26T13:20:13;5.78;;;4.10;;
47784;SDS011;35233;55.686;37.848;2024-02-26T13:22:50;6.35;;;4.00;;
47784;SDS011;35233;55.686;37.848;2024-02-26T13:25:20;6.82;;;3.85;;
47784;SDS011;35233;55.686;37.848;2024-02-26T13:27:46;6.63;;;4.13;;
47784;SDS011;35233;55.686;37.848;2024-02-26T13:30:12;6.82;;;3.83;;
47784;SDS011;35233;55.686;37.848;2024-02-26T13:32:38;5.90;;;4.00;;
47784;SDS011;35233;55.686;37.848;2024-02-26T13:35:09;5.80;;;3.60;;
47784;SDS011;35233;55.686;37.848;2024-02-26T13:37:36;5.40;;;3.92;;
47784;SDS011;35233;55.686;37.848;2024-02-26T13:40:10;5.50;;;3.47;;
47784;SDS011;35233;55.686;37.848;2024-02-26T13:42:36;5.65;;;4.00;;
47784;SDS011;35233;55.686;37.848;2024-02-26T13:45:03;6.10;;;3.80;;
47784;SDS011;35233;55.686;37.848;2024-02-26T13:47:32;7.63;;;4.20;;
47784;SDS011;35233;55.686;37.848;2024-02-26T13:50:02;8.80;;;3.80;;
47784;SDS011;35233;55.686;37.848;2024-02-26T13:55:02;5.13;;;3.60;;
47784;SDS011;35233;55.686;37.848;2024-02-26T13:57:28;4.88;;;3.47;;
47784;SDS011;35233;55.686;37.848;2024-02-26T13:59:54;5.85;;;3.72;;
47784;SDS011;35233;55.686;37.848;2024-02-26T14:02:20;5.57;;;3.55;;
47784;SDS011;35233;55.686;37.848;2024-02-26T14:04:46;5.18;;;3.42;;
47784;SDS011;35233;55.686;37.848;2024-02-26T14:07:12;6.00;;;3.58;;
47784;SDS011;35233;55.686;37.848;2024-02-26T14:09:38;6.53;;;3.80;;
47784;SDS011;35233;55.686;37.848;2024-02-26T14:12:04;5.50;;;3.70;;
47784;SDS011;35233;55.686;37.848;2024-02-26T14:14:30;5.00;;;3.33;;
47784;SDS011;35233;55.686;37.848;2024-02-26T14:16:58;6.18;;;3.38;;
47784;SDS011;35233;55.686;37.848;2024-02-26T14:19:43;4.72;;;3.28;;
47784;SDS011;35233;55.686;37.848;2024-02-26T14:22:12;4.97;;;3.63;;
47784;SDS011;35233;55.686;37.848;2024-02-26T14:24:39;6.72;;;3.42;;
47784;SDS011;35233;55.686;37.848;2024-02-26T14:27:12;5.53;;;3.20;;
47784;SDS011;35233;55.686;37.848;2024-02-26T14:29:44;6.32;;;3.17;;
47784;SDS011;35233;55.686;37.848;2024-02-26T14:32:12;4.75;;;3.13;;
47784;SDS011;35233;55.686;37.848;2024-02-26T14:34:41;4.78;;;3.15;;
47784;SDS011;35233;55.686;37.848;2024-02-26T14:37:10;5.75;;;3.20;;
47784;SDS011;35233;55.686;37.848;2024-02-26T14:42:28;5.68;;;3.22;;
47784;SDS011;35233;55.686;37.848;2024-02-26T14:45:05;5.65;;;3.22;;
47784;SDS011;35233;55.686;37.848;2024-02-26T14:47:34;7.45;;;3.33;;
47784;SDS011;35233;55.686;37.848;2024-02-26T14:50:00;4.28;;;2.97;;
47784;SDS011;35233;55.686;37.848;2024-02-26T14:52:26;5.90;;;3.22;;
47784;SDS011;35233;55.686;37.848;2024-02-26T14:54:54;6.70;;;3.58;;
47784;SDS011;35233;55.686;37.848;2024-02-26T14:57:26;5.35;;;3.22;;
47784;SDS011;35233;55.686;37.848;2024-02-26T14:59:51;5.60;;;3.30;;